Time;durP1;ratioP1;P1;durP2;ratioP2;P2;SDS_P1;SDS_P2;PMS_P1;PMS_P2;Temp;Humidity;BMP_temperature;BMP_pressure;BME280_temperature;BME280_humidity;BME280_pressure;Samples;Min_cycle;Max_cycle;Signal;HPM_P1;HPM_P2
2023/08/14 00:00:09;;;;;;;4.85;2.80;;;;;;;;;;2560024;23;20001;-91
2023/08/14 00:01:09;;;;;;;4.30;2.95;;;;;;;;;;2555914;23;20024;-91
2023/08/14 00:02:10;;;;;;;4.32;3.00;;;;;;;;;;2543355;23;20389;-91
2023/08/14 00:03:10;;;;;;;4.47;3.42;;;;;;;;;;2543338;23;19997;-91
2023/08/14 00:04:11;;;;;;;4.93;3.38;;;;;;;;;;2543449;23;20129;-90
2023/08/14 00:05:12;;;;;;;4.85;3.28;;;;;;;;;;2543457;23;20020;-91
2023/08/14 00:06:13;;;;;;;5.38;3.38;;;;;;;;;;2560318;23;20537;-92
2023/08/14 00:07:13;;;;;;;4.93;3.03;;;;;;;;;;2555612;23;19997;-91
2023/08/14 00:08:14;;;;;;;4.25;3.00;;;;;;;;;;2555886;23;20210;-91
2023/08/14 00:09:14;;;;;;;4.03;2.58;;;;;;;;;;2568239;23;20358;-91
2023/08/14 00:10:15;;;;;;;5.57;3.30;;;;;;;;;;2573045;23;20402;-91
2023/08/14 00:11:18;;;;;;;4.88;3.67;;;;;;;;;;2555288;23;20004;-91
2023/08/14 00:12:18;;;;;;;4.93;2.85;;;;;;;;;;2563668;23;20545;-94
2023/08/14 00:13:22;;;;;;;3.72;3.20;;;;;;;;;;2570720;23;20091;-95
2023/08/14 00:14:22;;;;;;;5.00;3.17;;;;;;;;;;2555659;23;20425;-91
2023/08/14 00:15:23;;;;;;;5.25;3.28;;;;;;;;;;2559601;23;20016;-91
2023/08/14 00:16:24;;;;;;;4.13;3.33;;;;;;;;;;2568100;23;20018;-91
2023/08/14 00:17:24;;;;;;;4.68;3.35;;;;;;;;;;2567824;23;19993;-91
2023/08/14 00:18:25;;;;;;;4.18;3.38;;;;;;;;;;2555656;23;19993;-90
2023/08/14 00:19:25;;;;;;;4.65;2.90;;;;;;;;;;2561528;23;20007;-91
2023/08/14 00:20:26;;;;;;;5.53;3.60;;;;;;;;;;2564550;23;20015;-90
2023/08/14 00:21:26;;;;;;;3.42;3.00;;;;;;;;;;2563627;23;20001;-90
2023/08/14 00:22:26;;;;;;;4.97;3.08;;;;;;;;;;2573862;23;20131;-91
2023/08/14 00:23:27;;;;;;;3.92;3.28;;;;;;;;;;2568880;23;19996;-89
2023/08/14 00:24:27;;;;;;;4.18;3.42;;;;;;;;;;2568325;23;20047;-90
2023/08/14 00:25:28;;;;;;;4.13;3.25;;;;;;;;;;2543182;23;20483;-90
2023/08/14 00:26:28;;;;;;;5.88;3.38;;;;;;;;;;2566408;23;19993;-90
2023/08/14 00:27:28;;;;;;;5.78;3.28;;;;;;;;;;2555442;23;20029;-89
2023/08/14 00:28:29;;;;;;;6.05;2.90;;;;;;;;;;2560149;23;19996;-90
2023/08/14 00:29:29;;;;;;;3.83;3.08;;;;;;;;;;2573172;23;19989;-90
2023/08/14 00:30:29;;;;;;;6.45;2.72;;;;;;;;;;2555764;23;20031;-92
2023/08/14 00:31:30;;;;;;;4.22;3.33;;;;;;;;;;2543335;23;20013;-90
2023/08/14 00:32:30;;;;;;;4.35;3.38;;;;;;;;;;2560072;23;20333;-90
2023/08/14 00:33:31;;;;;;;4.63;3.25;;;;;;;;;;2573121;23;20057;-91
2023/08/14 00:34:31;;;;;;;3.92;3.30;;;;;;;;;;2568213;23;20020;-91
2023/08/14 00:35:31;;;;;;;5.00;3.25;;;;;;;;;;2571236;23;19993;-91
2023/08/14 00:36:32;;;;;;;4.10;3.35;;;;;;;;;;2573230;23;20405;-92
2023/08/14 00:37:43;;;;;;;3.85;3.28;;;;;;;;;;2568073;23;20119;-91
2023/08/14 00:38:43;;;;;;;4.22;3.03;;;;;;;;;;2555265;23;20020;-90
2023/08/14 00:39:43;;;;;;;5.45;3.15;;;;;;;;;;2542948;23;20017;-89
2023/08/14 00:40:44;;;;;;;4.68;2.92;;;;;;;;;;2559244;23;19993;-90
2023/08/14 00:41:44;;;;;;;4.95;3.15;;;;;;;;;;2572726;23;20451;-89
2023/08/14 00:42:45;;;;;;;5.50;3.25;;;;;;;;;;2573031;23;20126;-89
2023/08/14 00:43:46;;;;;;;4.45;3.45;;;;;;;;;;2554970;23;20063;-89
2023/08/14 00:44:46;;;;;;;7.13;3.20;;;;;;;;;;2556062;23;20036;-89
2023/08/14 00:45:48;;;;;;;5.28;2.92;;;;;;;;;;2554698;23;19995;-89
2023/08/14 00:46:49;;;;;;;4.35;3.10;;;;;;;;;;2571802;23;20016;-88
2023/08/14 00:47:50;;;;;;;4.95;3.30;;;;;;;;;;2578972;22;20016;-89
2023/08/14 00:48:51;;;;;;;5.95;3.28;;;;;;;;;;2559264;23;20444;-90
2023/08/14 00:49:51;;;;;;;3.38;3.00;;;;;;;;;;2123814;23;10168452;-89
2023/08/14 00:50:54;;;;;;;4.45;3.25;;;;;;;;;;2555305;23;20439;-89
2023/08/14 00:51:54;;;;;;;4.78;3.20;;;;;;;;;;2543172;23;20298;-91
2023/08/14 00:52:56;;;;;;;4.63;3.42;;;;;;;;;;2542602;23;20001;-90
2023/08/14 00:53:57;;;;;;;4.95;3.10;;;;;;;;;;2542967;23;20384;-91
2023/08/14 00:55:01;;;;;;;4.43;3.42;;;;;;;;;;2559224;23;20020;-91
2023/08/14 00:56:02;;;;;;;4.88;3.28;;;;;;;;;;2572342;23;20031;-90
2023/08/14 00:57:03;;;;;;;7.18;3.75;;;;;;;;;;2555386;23;19997;-90
2023/08/14 00:58:04;;;;;;;3.95;3.38;;;;;;;;;;2542697;23;20001;-91
2023/08/14 00:59:05;;;;;;;5.72;3.50;;;;;;;;;;2559345;23;20028;-89
2023/08/14 01:00:08;;;;;;;5.93;3.90;;;;;;;;;;2573226;23;19997;-90
2023/08/14 01:01:09;;;;;;;5.63;3.80;;;;;;;;;;2573422;23;20055;-90
2023/08/14 01:02:09;;;;;;;4.47;3.70;;;;;;;;;;2572660;23;20052;-90
2023/08/14 01:03:10;;;;;;;4.70;4.07;;;;;;;;;;2567812;23;20016;-91
2023/08/14 01:04:10;;;;;;;6.90;3.88;;;;;;;;;;2567736;23;20078;-90
2023/08/14 01:05:11;;;;;;;7.60;3.67;;;;;;;;;;2559728;23;20000;-90
2023/08/14 01:06:11;;;;;;;4.25;3.20;;;;;;;;;;2572818;23;20064;-90
2023/08/14 01:07:12;;;;;;;4.90;3.50;;;;;;;;;;2557651;23;20076;-92
2023/08/14 01:08:12;;;;;;;4.38;3.53;;;;;;;;;;2567556;23;20053;-88
2023/08/14 01:09:12;;;;;;;4.35;3.40;;;;;;;;;;2558891;23;19993;-90
2023/08/14 01:10:13;;;;;;;9.40;4.05;;;;;;;;;;2555545;23;20447;-91
2023/08/14 01:11:38;;;;;;;4.40;4.00;;;;;;;;;;2555466;23;20454;-90
2023/08/14 01:12:42;;;;;;;4.60;3.78;;;;;;;;;;2565348;23;20006;-90
2023/08/14 01:14:17;;;;;;;7.30;3.42;;;;;;;;;;2567916;23;20485;-91
2023/08/14 01:15:38;;;;;;;5.03;3.58;;;;;;;;;;2556192;23;20000;-90
2023/08/14 01:16:42;;;;;;;3.70;3.30;;;;;;;;;;2565092;23;20024;-90
2023/08/14 01:17:49;;;;;;;4.60;3.92;;;;;;;;;;2573117;23;19992;-91
2023/08/14 01:18:53;;;;;;;5.05;3.45;;;;;;;;;;2555589;23;20016;-91
2023/08/14 01:19:57;;;;;;;6.07;4.10;;;;;;;;;;2543723;23;19998;-90
2023/08/14 01:21:11;;;;;;;6.72;3.90;;;;;;;;;;2560560;23;19993;-90
2023/08/14 01:22:16;;;;;;;6.07;3.65;;;;;;;;;;2559553;23;19997;-90
2023/08/14 01:23:35;;;;;;;5.07;3.70;;;;;;;;;;2544409;23;20021;-89
2023/08/14 01:24:46;;;;;;;4.45;3.63;;;;;;;;;;2547154;23;19993;-90
2023/08/14 01:25:47;;;;;;;;;;;;;;;;;;2545807;23;20032;-90
2023/08/14 01:26:48;;;;;;;;;;;;;;;;;;2556208;23;20255;-90
2023/08/14 01:27:49;;;;;;;5.28;3.50;;;;;;;;;;2559570;23;19916;-90
2023/08/14 01:28:50;;;;;;;5.85;4.15;;;;;;;;;;2555544;23;20366;-90
2023/08/14 01:29:59;;;;;;;5.93;3.60;;;;;;;;;;2543305;23;20009;-90
2023/08/14 01:30:59;;;;;;;6.28;3.78;;;;;;;;;;2544664;23;19998;-91
2023/08/14 01:32:00;;;;;;;4.28;3.72;;;;;;;;;;2555885;23;20039;-90
2023/08/14 01:33:00;;;;;;;4.70;3.72;;;;;;;;;;2555726;23;20008;-90
2023/08/14 01:34:01;;;;;;;6.85;3.60;;;;;;;;;;2543365;23;20028;-90
2023/08/14 01:35:01;;;;;;;7.13;3.70;;;;;;;;;;2543497;23;20132;-90
2023/08/14 01:36:15;;;;;;;7.05;3.65;;;;;;;;;;2523264;23;20434;-89
2023/08/14 01:37:25;;;;;;;5.72;3.75;;;;;;;;;;2562567;23;19989;-90
2023/08/14 01:38:38;;;;;;;4.78;4.07;;;;;;;;;;2559738;23;20012;-90
2023/08/14 01:39:46;;;;;;;7.47;4.22;;;;;;;;;;2545588;23;20396;-90
2023/08/14 01:40:56;;;;;;;5.70;3.85;;;;;;;;;;2544914;23;19993;-90
2023/08/14 01:42:25;;;;;;;6.63;4.70;;;;;;;;;;2561841;23;20001;-91
2023/08/14 01:43:52;;;;;;;6.70;3.90;;;;;;;;;;2555545;23;20033;-91
2023/08/14 01:44:59;;;;;;;6.65;3.78;;;;;;;;;;2547229;23;20338;-91
2023/08/14 01:46:00;;;;;;;7.70;3.75;;;;;;;;;;2567886;23;20410;-91
2023/08/14 01:47:05;;;;;;;4.68;3.80;;;;;;;;;;2555671;23;20043;-90
2023/08/14 01:48:11;;;;;;;6.28;3.90;;;;;;;;;;2543368;23;20448;-91
2023/08/14 01:49:14;;;;;;;4.88;3.90;;;;;;;;;;2560825;23;20307;-90
2023/08/14 01:50:15;;;;;;;5.07;3.55;;;;;;;;;;2573514;23;20307;-89
2023/08/14 01:51:17;;;;;;;7.35;3.70;;;;;;;;;;2555803;23;20103;-89
2023/08/14 01:52:17;;;;;;;5.25;4.15;;;;;;;;;;2554766;23;20011;-91
2023/08/14 01:53:18;;;;;;;8.70;3.80;;;;;;;;;;2559011;23;20485;-90
2023/08/14 01:54:18;;;;;;;8.50;3.92;;;;;;;;;;2554771;23;20019;-90
2023/08/14 01:55:19;;;;;;;5.90;3.78;;;;;;;;;;2542569;23;20077;-90
2023/08/14 01:56:19;;;;;;;5.72;3.90;;;;;;;;;;2545206;23;19989;-90
2023/08/14 01:57:20;;;;;;;4.78;4.13;;;;;;;;;;2545639;23;20344;-90
2023/08/14 01:58:21;;;;;;;5.45;3.90;;;;;;;;;;2558927;23;19999;-90
2023/08/14 01:59:30;;;;;;;7.15;4.20;;;;;;;;;;2555146;23;20092;-91
2023/08/14 02:00:33;;;;;;;4.28;3.80;;;;;;;;;;2560959;23;20001;-91
2023/08/14 02:01:34;;;;;;;6.65;4.53;;;;;;;;;;2554584;23;20435;-91
2023/08/14 02:02:34;;;;;;;6.10;3.97;;;;;;;;;;2542389;23;20100;-90
2023/08/14 02:03:35;;;;;;;6.50;4.35;;;;;;;;;;2558854;23;19995;-90
2023/08/14 02:04:35;;;;;;;8.95;4.38;;;;;;;;;;2554492;23;19989;-90
2023/08/14 02:05:35;;;;;;;5.93;3.80;;;;;;;;;;2542263;23;20028;-90
2023/08/14 02:06:36;;;;;;;5.97;4.20;;;;;;;;;;2558956;23;19996;-90
2023/08/14 02:07:39;;;;;;;7.53;4.60;;;;;;;;;;2116185;23;10489849;-90
2023/08/14 02:08:39;;;;;;;5.80;4.00;;;;;;;;;;2571197;23;20071;-90
2023/08/14 02:09:40;;;;;;;6.47;4.22;;;;;;;;;;2554447;23;20000;-90
2023/08/14 02:10:40;;;;;;;8.02;4.22;;;;;;;;;;2554319;23;20032;-90
2023/08/14 02:11:40;;;;;;;5.43;4.20;;;;;;;;;;2554218;23;20307;-90
2023/08/14 02:12:41;;;;;;;7.40;4.10;;;;;;;;;;2558826;23;19997;-90
2023/08/14 02:13:41;;;;;;;6.40;4.43;;;;;;;;;;2554343;23;20046;-91
2023/08/14 02:14:43;;;;;;;5.40;4.40;;;;;;;;;;2541797;23;20471;-90
2023/08/14 02:15:46;;;;;;;5.88;4.18;;;;;;;;;;2558895;23;20411;-90
2023/08/14 02:16:47;;;;;;;6.80;4.47;;;;;;;;;;2572245;23;20000;-90
2023/08/14 02:17:47;;;;;;;7.43;4.47;;;;;;;;;;2566906;23;20039;-90
2023/08/14 02:18:48;;;;;;;6.25;4.55;;;;;;;;;;2566801;23;19997;-90
2023/08/14 02:19:48;;;;;;;5.90;4.20;;;;;;;;;;2542374;23;19998;-91
2023/08/14 02:20:49;;;;;;;5.13;4.15;;;;;;;;;;2542860;23;20009;-91
2023/08/14 02:21:50;;;;;;;6.50;4.45;;;;;;;;;;2554805;23;20467;-90
2023/08/14 02:22:50;;;;;;;6.88;4.53;;;;;;;;;;2542475;23;20004;-90
2023/08/14 02:23:50;;;;;;;5.15;4.13;;;;;;;;;;2554941;23;20001;-90
2023/08/14 02:24:51;;;;;;;7.93;4.60;;;;;;;;;;2542568;23;20051;-90
2023/08/14 02:25:56;;;;;;;7.22;4.13;;;;;;;;;;2542585;23;20072;-90
2023/08/14 02:26:56;;;;;;;5.63;4.28;;;;;;;;;;2559912;23;20067;-89
2023/08/14 02:27:57;;;;;;;6.30;4.53;;;;;;;;;;2572327;23;19996;-90
2023/08/14 02:28:57;;;;;;;5.15;4.10;;;;;;;;;;2572271;23;20490;-90
2023/08/14 02:29:58;;;;;;;7.47;4.70;;;;;;;;;;2554975;23;20020;-90
2023/08/14 02:31:01;;;;;;;6.97;4.15;;;;;;;;;;2542875;23;20438;-90
2023/08/14 02:32:01;;;;;;;7.43;4.45;;;;;;;;;;2560312;23;19997;-89
2023/08/14 02:33:04;;;;;;;8.27;4.40;;;;;;;;;;2572421;23;20497;-90
2023/08/14 02:34:04;;;;;;;6.07;4.47;;;;;;;;;;2572307;23;19992;-89
2023/08/14 02:35:05;;;;;;;5.85;4.07;;;;;;;;;;2567439;23;20046;-90
2023/08/14 02:36:05;;;;;;;9.10;4.43;;;;;;;;;;2567337;23;20068;-89
2023/08/14 02:37:06;;;;;;;6.97;4.45;;;;;;;;;;2559136;23;20159;-90
2023/08/14 02:38:07;;;;;;;6.38;4.57;;;;;;;;;;2554843;23;19993;-90
2023/08/14 02:39:07;;;;;;;8.98;4.80;;;;;;;;;;2542464;23;20040;-90
2023/08/14 02:40:08;;;;;;;7.40;4.53;;;;;;;;;;2542651;23;19997;-90
2023/08/14 02:41:15;;;;;;;7.38;4.30;;;;;;;;;;2543554;23;20487;-92
2023/08/14 02:42:17;;;;;;;5.15;4.07;;;;;;;;;;2560529;23;20437;-91
2023/08/14 02:43:19;;;;;;;9.15;4.10;;;;;;;;;;2549306;23;20380;-90
2023/08/14 02:44:20;;;;;;;5.15;4.53;;;;;;;;;;2570217;23;19993;-91
2023/08/14 02:45:29;;;;;;;4.72;4.05;;;;;;;;;;2568908;23;19996;-91
2023/08/14 02:47:13;;;;;;;6.60;4.60;;;;;;;;;;2556417;23;20439;-92
2023/08/14 02:48:13;;;;;;;4.88;4.35;;;;;;;;;;2555784;23;20412;-91
2023/08/14 02:49:14;;;;;;;7.00;5.30;;;;;;;;;;2556280;23;20071;-91
2023/08/14 02:50:14;;;;;;;7.13;3.88;;;;;;;;;;2572710;23;20359;-91
2023/08/14 02:51:15;;;;;;;5.57;4.47;;;;;;;;;;2556190;23;19993;-91
2023/08/14 02:52:20;;;;;;;6.18;4.28;;;;;;;;;;2543712;23;20399;-91
2023/08/14 02:53:21;;;;;;;8.00;4.43;;;;;;;;;;2561270;23;20316;-92
2023/08/14 02:54:21;;;;;;;7.20;4.50;;;;;;;;;;2573432;23;20074;-92
2023/08/14 02:55:22;;;;;;;6.60;4.20;;;;;;;;;;2568332;23;20015;-92
2023/08/14 02:56:41;;;;;;;5.35;4.25;;;;;;;;;;2572934;23;19988;-92
2023/08/14 02:57:41;;;;;;;5.78;4.78;;;;;;;;;;2573897;23;19989;-90
2023/08/14 02:58:42;;;;;;;7.82;5.63;;;;;;;;;;2573757;23;20017;-92
2023/08/14 02:59:42;;;;;;;6.40;4.40;;;;;;;;;;2573765;23;19992;-90
2023/08/14 03:00:45;;;;;;;7.70;4.90;;;;;;;;;;2573347;23;20393;-91
2023/08/14 03:01:45;;;;;;;6.78;4.57;;;;;;;;;;2555902;23;20103;-92
2023/08/14 03:03:03;;;;;;;5.10;4.35;;;;;;;;;;2549017;23;20001;-91
2023/08/14 03:04:14;;;;;;;6.90;4.95;;;;;;;;;;2542854;23;20066;-91
2023/08/14 03:05:20;;;;;;;7.40;5.50;;;;;;;;;;2559264;23;19998;-90
2023/08/14 03:06:56;;;;;;;11.32;5.30;;;;;;;;;;2554944;23;20036;-90
2023/08/14 03:07:56;;;;;;;8.45;5.05;;;;;;;;;;2549359;23;20376;-90
2023/08/14 03:08:58;;;;;;;7.30;4.90;;;;;;;;;;2543448;23;20005;-90
2023/08/14 03:09:58;;;;;;;5.47;4.50;;;;;;;;;;2543810;23;20028;-92
2023/08/14 03:10:59;;;;;;;4.95;3.90;;;;;;;;;;2560396;23;20001;-93
2023/08/14 03:11:59;;;;;;;6.68;4.35;;;;;;;;;;2582054;23;20062;-92
2023/08/14 03:13:03;;;;;;;4.95;4.28;;;;;;;;;;2563994;23;20004;-93
2023/08/14 03:14:04;;;;;;;5.70;4.55;;;;;;;;;;2552616;23;20470;-91
2023/08/14 03:15:05;;;;;;;6.40;4.38;;;;;;;;;;2561834;23;19993;-91
2023/08/14 03:16:08;;;;;;;4.50;4.10;;;;;;;;;;2545615;23;19994;-90
2023/08/14 03:17:13;;;;;;;6.53;4.45;;;;;;;;;;2546359;23;19993;-92
2023/08/14 03:18:13;;;;;;;5.40;3.90;;;;;;;;;;2556584;23;20007;-91
2023/08/14 03:19:15;;;;;;;8.88;5.35;;;;;;;;;;2543629;23;19997;-91
2023/08/14 03:20:15;;;;;;;5.60;4.57;;;;;;;;;;2543311;23;20352;-90
2023/08/14 03:21:16;;;;;;;5.80;4.70;;;;;;;;;;2542554;23;20024;-89
2023/08/14 03:22:16;;;;;;;7.13;4.35;;;;;;;;;;2541685;23;19998;-89
2023/08/14 03:23:16;;;;;;;8.88;4.30;;;;;;;;;;2541623;23;20057;-88
2023/08/14 03:24:17;;;;;;;5.95;4.50;;;;;;;;;;2558617;23;20024;-89
2023/08/14 03:25:17;;;;;;;6.85;4.97;;;;;;;;;;2566899;23;20067;-90
2023/08/14 03:26:18;;;;;;;5.63;4.45;;;;;;;;;;2554752;23;20032;-90
2023/08/14 03:27:18;;;;;;;7.82;4.45;;;;;;;;;;2543489;23;20013;-91
2023/08/14 03:28:19;;;;;;;7.32;4.63;;;;;;;;;;2559543;23;19997;-91
2023/08/14 03:29:19;;;;;;;8.65;4.85;;;;;;;;;;2555855;23;20031;-91
2023/08/14 03:30:19;;;;;;;6.47;4.63;;;;;;;;;;2543739;23;20036;-90
2023/08/14 03:31:20;;;;;;;7.50;4.15;;;;;;;;;;2546726;23;19990;-89
2023/08/14 03:32:20;;;;;;;7.45;4.82;;;;;;;;;;2561326;23;19997;-90
2023/08/14 03:33:20;;;;;;;5.05;4.55;;;;;;;;;;2555665;23;20017;-91
2023/08/14 03:34:21;;;;;;;10.82;4.47;;;;;;;;;;2556147;23;19989;-90
2023/08/14 03:35:21;;;;;;;9.00;5.05;;;;;;;;;;2559726;23;19993;-90
2023/08/14 03:36:22;;;;;;;5.55;4.25;;;;;;;;;;2555642;23;20000;-90
2023/08/14 03:37:22;;;;;;;9.85;4.70;;;;;;;;;;2555285;23;20129;-89
2023/08/14 03:38:22;;;;;;;5.68;4.50;;;;;;;;;;2555868;23;20076;-89
2023/08/14 03:39:23;;;;;;;6.25;4.57;;;;;;;;;;2559683;23;20051;-90
2023/08/14 03:40:24;;;;;;;5.25;4.47;;;;;;;;;;2568229;23;20003;-92
2023/08/14 03:41:24;;;;;;;7.32;4.50;;;;;;;;;;2568184;23;20002;-92
2023/08/14 03:42:24;;;;;;;4.93;4.43;;;;;;;;;;2555260;23;20505;-91
2023/08/14 03:43:25;;;;;;;7.55;4.65;;;;;;;;;;2545059;23;20086;-91
2023/08/14 03:44:25;;;;;;;6.82;4.20;;;;;;;;;;2545690;23;20362;-91
2023/08/14 03:45:26;;;;;;;8.90;4.93;;;;;;;;;;2543914;23;20032;-91
2023/08/14 03:46:26;;;;;;;5.75;4.60;;;;;;;;;;2543620;23;20343;-90
2023/08/14 03:47:28;;;;;;;7.97;5.00;;;;;;;;;;2124377;23;10117004;-90
2023/08/14 03:48:28;;;;;;;5.68;4.93;;;;;;;;;;2560633;23;20060;-91
2023/08/14 03:49:28;;;;;;;6.93;4.55;;;;;;;;;;2556199;23;20001;-92
2023/08/14 03:50:29;;;;;;;5.72;4.45;;;;;;;;;;2543808;23;20111;-91
2023/08/14 03:51:29;;;;;;;5.63;4.28;;;;;;;;;;2544043;23;20436;-91
2023/08/14 03:52:30;;;;;;;9.38;4.55;;;;;;;;;;2543919;23;19990;-91
2023/08/14 03:53:30;;;;;;;7.30;4.45;;;;;;;;;;2543562;23;20432;-94
2023/08/14 03:54:31;;;;;;;14.57;7.80;;;;;;;;;;2544118;23;20010;-92
2023/08/14 03:55:31;;;;;;;9.07;4.93;;;;;;;;;;2556368;23;20003;-92
2023/08/14 03:56:31;;;;;;;6.45;4.40;;;;;;;;;;2571812;23;20055;-92
2023/08/14 03:57:32;;;;;;;5.55;4.10;;;;;;;;;;2556582;23;19981;-92
2023/08/14 03:58:32;;;;;;;6.40;4.68;;;;;;;;;;2556779;23;20015;-93
2023/08/14 03:59:32;;;;;;;6.78;4.72;;;;;;;;;;2544354;23;20073;-92
2023/08/14 04:00:34;;;;;;;7.68;5.28;;;;;;;;;;2544093;23;20424;-92
2023/08/14 04:01:36;;;;;;;5.65;4.45;;;;;;;;;;2556735;23;20000;-92
2023/08/14 04:02:36;;;;;;;8.27;3.78;;;;;;;;;;2556868;23;19989;-92
2023/08/14 04:03:37;;;;;;;8.27;3.60;;;;;;;;;;2544161;23;20088;-91
2023/08/14 04:04:37;;;;;;;5.32;4.30;;;;;;;;;;2544316;23;20029;-92
2023/08/14 04:05:39;;;;;;;6.78;3.95;;;;;;;;;;2556587;23;19993;-92
2023/08/14 04:06:42;;;;;;;5.68;4.00;;;;;;;;;;2556612;23;20031;-92
2023/08/14 04:07:43;;;;;;;5.10;3.83;;;;;;;;;;2557071;23;20017;-92
2023/08/14 04:08:43;;;;;;;7.45;3.95;;;;;;;;;;2573899;23;20451;-92
2023/08/14 04:09:44;;;;;;;5.07;3.75;;;;;;;;;;2568510;23;20040;-92
2023/08/14 04:12:50;;;;;;;6.40;3.75;;;;;;;;;;2536951;23;20348;-92
2023/08/14 04:13:51;;;;;;;7.55;4.18;;;;;;;;;;2556619;23;20112;-93
2023/08/14 04:14:51;;;;;;;4.38;3.97;;;;;;;;;;2560800;23;20189;-92
2023/08/14 04:15:59;;;;;;;6.68;3.80;;;;;;;;;;2556195;23;20011;-92
2023/08/14 04:17:00;;;;;;;4.00;3.60;;;;;;;;;;2558783;23;20128;-93
2023/08/14 04:18:09;;;;;;;6.53;4.57;;;;;;;;;;2557029;23;20439;-92
2023/08/14 04:19:14;;;;;;;7.05;3.60;;;;;;;;;;2555057;23;20136;-91
2023/08/14 04:20:15;;;;;;;5.63;4.38;;;;;;;;;;2552043;23;20001;-93
2023/08/14 04:21:15;;;;;;;5.10;4.60;;;;;;;;;;2561036;23;20024;-93
2023/08/14 04:23:26;;;;;;;10.02;4.57;;;;;;;;;;2569691;22;20016;-93
2023/08/14 04:24:27;;;;;;;6.50;4.05;;;;;;;;;;2574587;23;19999;-91
2023/08/14 04:25:35;;;;;;;5.95;4.20;;;;;;;;;;2556817;23;20076;-92
2023/08/14 04:26:36;;;;;;;6.82;4.00;;;;;;;;;;2557043;23;19997;-93
2023/08/14 04:27:40;;;;;;;8.95;4.55;;;;;;;;;;2561420;23;20033;-91
2023/08/14 04:29:00;;;;;;;6.93;4.22;;;;;;;;;;2574631;23;20012;-92
2023/08/14 04:30:01;;;;;;;4.90;4.22;;;;;;;;;;2574558;23;20250;-92
2023/08/14 04:31:01;;;;;;;9.07;4.53;;;;;;;;;;2574444;23;20374;-92
2023/08/14 04:32:01;;;;;;;10.77;4.47;;;;;;;;;;2556908;23;20028;-91
2023/08/14 04:33:02;;;;;;;11.88;5.97;;;;;;;;;;2556763;23;20046;-91
2023/08/14 04:34:04;;;;;;;7.25;4.30;;;;;;;;;;2557217;23;20467;-93
2023/08/14 04:35:06;;;;;;;5.70;4.18;;;;;;;;;;2544639;23;19993;-93
2023/08/14 04:36:06;;;;;;;5.47;3.95;;;;;;;;;;2561185;23;19993;-94
2023/08/14 04:37:07;;;;;;;9.25;4.80;;;;;;;;;;2557039;23;20460;-93
2023/08/14 04:38:10;;;;;;;8.25;4.07;;;;;;;;;;2544569;23;19994;-92
2023/08/14 04:39:15;;;;;;;6.38;4.43;;;;;;;;;;2545816;23;20459;-93
2023/08/14 04:40:23;;;;;;;9.65;4.70;;;;;;;;;;2558280;23;20092;-92
2023/08/14 04:41:27;;;;;;;6.63;4.30;;;;;;;;;;2573820;23;19993;-93
2023/08/14 04:42:27;;;;;;;10.63;4.95;;;;;;;;;;2568482;23;20498;-92
2023/08/14 04:43:31;;;;;;;9.18;4.45;;;;;;;;;;2573212;23;19993;-93
2023/08/14 04:44:32;;;;;;;7.07;4.35;;;;;;;;;;2574005;23;19992;-94
2023/08/14 04:45:51;;;;;;;8.15;4.43;;;;;;;;;;2555999;23;20100;-93
2023/08/14 04:46:51;;;;;;;4.55;3.83;;;;;;;;;;2564732;23;20001;-93
2023/08/14 04:48:00;;;;;;;10.32;4.68;;;;;;;;;;1258889;23;10001195;-92
2023/08/14 04:49:06;;;;;;;4.32;3.88;;;;;;;;;;2561848;23;19997;-92
2023/08/14 04:50:07;;;;;;;6.90;3.95;;;;;;;;;;2557058;23;19997;-94
2023/08/14 04:51:07;;;;;;;5.75;3.70;;;;;;;;;;2545009;23;20076;-92
2023/08/14 04:52:08;;;;;;;6.05;3.55;;;;;;;;;;2560826;23;20057;-94
2023/08/14 04:53:08;;;;;;;5.85;3.55;;;;;;;;;;2568808;23;20100;-92
2023/08/14 04:54:08;;;;;;;5.15;3.80;;;;;;;;;;2569228;23;20020;-92
2023/08/14 04:55:09;;;;;;;6.63;4.20;;;;;;;;;;2573413;23;20000;-92
2023/08/14 04:56:09;;;;;;;5.18;3.60;;;;;;;;;;2556536;23;20108;-91
2023/08/14 04:57:10;;;;;;;4.18;3.63;;;;;;;;;;2556229;23;20342;-92
2023/08/14 04:58:10;;;;;;;4.05;3.40;;;;;;;;;;2543650;23;20055;-92
2023/08/14 04:59:11;;;;;;;6.13;3.92;;;;;;;;;;2562018;23;20005;-92
2023/08/14 05:00:17;;;;;;;7.25;3.67;;;;;;;;;;2562449;23;19997;-90
2023/08/14 05:01:33;;;;;;;5.28;3.45;;;;;;;;;;2550868;23;20088;-92
2023/08/14 05:02:33;;;;;;;4.38;3.67;;;;;;;;;;2567124;23;20120;-93
2023/08/14 05:03:34;;;;;;;8.05;3.65;;;;;;;;;;2574546;23;20000;-93
2023/08/14 05:04:34;;;;;;;7.72;4.38;;;;;;;;;;2556555;23;20000;-94
2023/08/14 05:05:35;;;;;;;6.95;3.88;;;;;;;;;;2568715;23;19981;-94
2023/08/14 05:06:35;;;;;;;6.80;3.90;;;;;;;;;;2580846;23;20071;-91
2023/08/14 05:07:35;;;;;;;5.32;3.70;;;;;;;;;;2575812;23;20016;-91
2023/08/14 05:08:36;;;;;;;5.78;3.88;;;;;;;;;;2574146;23;20054;-91
2023/08/14 05:09:36;;;;;;;5.38;3.70;;;;;;;;;;2556368;23;20136;-92
2023/08/14 05:11:18;;;;;;;6.05;3.55;;;;;;;;;;2560985;23;20486;-91
2023/08/14 05:12:22;;;;;;;6.35;3.65;;;;;;;;;;2573859;23;19993;-92
2023/08/14 05:13:44;;;;;;;4.72;3.42;;;;;;;;;;2556767;23;19993;-92
2023/08/14 05:15:13;;;;;;;7.40;3.45;;;;;;;;;;2548380;23;20001;-92
2023/08/14 05:16:14;;;;;;;6.97;3.88;;;;;;;;;;2554283;23;20350;-92
2023/08/14 05:17:36;;;;;;;7.43;3.95;;;;;;;;;;2574177;23;19996;-92
2023/08/14 05:18:36;;;;;;;7.65;4.32;;;;;;;;;;2569994;23;20046;-92
2023/08/14 05:19:36;;;;;;;4.65;3.60;;;;;;;;;;2575031;23;19988;-93
2023/08/14 05:20:37;;;;;;;11.27;3.85;;;;;;;;;;2557516;23;20016;-92
2023/08/14 05:21:38;;;;;;;4.22;3.25;;;;;;;;;;2544010;23;20079;-92
2023/08/14 05:22:38;;;;;;;5.28;3.22;;;;;;;;;;2543855;23;19994;-92
2023/08/14 05:23:38;;;;;;;7.88;3.75;;;;;;;;;;2555917;23;20021;-93
2023/08/14 05:24:46;;;;;;;5.03;3.65;;;;;;;;;;2573005;23;20419;-92
2023/08/14 05:25:46;;;;;;;7.45;3.60;;;;;;;;;;2573873;23;20058;-92
2023/08/14 05:26:47;;;;;;;7.18;3.88;;;;;;;;;;2573465;23;20447;-93
2023/08/14 05:27:47;;;;;;;8.63;3.45;;;;;;;;;;2574172;23;20080;-93
2023/08/14 05:28:47;;;;;;;5.50;3.45;;;;;;;;;;2568551;23;19992;-92
2023/08/14 05:29:48;;;;;;;4.30;3.80;;;;;;;;;;2568591;23;19993;-93
2023/08/14 05:30:48;;;;;;;5.38;3.75;;;;;;;;;;2560786;23;20001;-94
2023/08/14 05:31:49;;;;;;;5.00;3.20;;;;;;;;;;2568195;23;20169;-92
2023/08/14 05:32:49;;;;;;;3.83;3.05;;;;;;;;;;2555810;23;19993;-92
2023/08/14 05:33:50;;;;;;;4.65;3.50;;;;;;;;;;2559919;23;19993;-93
2023/08/14 05:34:50;;;;;;;4.13;3.20;;;;;;;;;;2575901;23;20413;-90
2023/08/14 05:35:50;;;;;;;3.42;3.00;;;;;;;;;;2556894;23;20650;-92
2023/08/14 05:37:10;;;;;;;7.18;3.55;;;;;;;;;;2559894;23;20020;-92
2023/08/14 05:38:34;;;;;;;6.67;3.83;;;;;;;;;;2556493;23;20100;-92
2023/08/14 05:39:34;;;;;;;5.78;3.25;;;;;;;;;;2566074;23;20060;-91
2023/08/14 05:40:35;;;;;;;6.20;3.75;;;;;;;;;;2557220;23;19993;-93
2023/08/14 05:41:38;;;;;;;5.07;3.28;;;;;;;;;;2555922;23;20025;-93
2023/08/14 05:42:39;;;;;;;4.70;3.25;;;;;;;;;;2556231;23;20024;-93
2023/08/14 05:43:39;;;;;;;4.05;3.17;;;;;;;;;;2560391;23;20360;-92
2023/08/14 05:44:40;;;;;;;6.25;3.08;;;;;;;;;;2556052;23;19993;-92
2023/08/14 05:45:45;;;;;;;5.88;3.55;;;;;;;;;;2555697;23;20502;-92
2023/08/14 05:46:45;;;;;;;7.90;4.05;;;;;;;;;;2566106;23;19993;-90
2023/08/14 05:47:46;;;;;;;4.78;3.08;;;;;;;;;;2566593;23;20004;-91
2023/08/14 05:48:46;;;;;;;6.18;3.50;;;;;;;;;;2554355;23;20005;-92
2023/08/14 05:49:46;;;;;;;5.70;3.20;;;;;;;;;;2542118;23;20017;-90
2023/08/14 05:50:50;;;;;;;5.05;4.55;;;;;;;;;;2542023;23;20391;-92
2023/08/14 05:51:50;;;;;;;7.47;4.78;;;;;;;;;;2559829;23;19997;-92
2023/08/14 05:52:52;;;;;;;4.00;3.60;;;;;;;;;;2573708;23;20000;-94
2023/08/14 05:53:52;;;;;;;4.47;3.40;;;;;;;;;;2578281;23;20007;-92
2023/08/14 05:54:52;;;;;;;4.80;3.08;;;;;;;;;;2579125;23;20016;-92
2023/08/14 05:55:53;;;;;;;5.20;4.10;;;;;;;;;;2562078;23;19997;-91
2023/08/14 05:56:53;;;;;;;4.30;3.33;;;;;;;;;;2568542;23;19997;-91
2023/08/14 05:57:53;;;;;;;4.45;3.10;;;;;;;;;;2565380;23;20001;-93
2023/08/14 05:58:57;;;;;;;7.05;3.50;;;;;;;;;;2554071;23;19985;-92
2023/08/14 05:59:58;;;;;;;5.28;3.65;;;;;;;;;;2547348;23;20005;-92
2023/08/14 06:00:58;;;;;;;6.15;3.55;;;;;;;;;;2561498;23;19993;-92
2023/08/14 06:02:32;;;;;;;8.43;3.80;;;;;;;;;;2573842;23;20088;-92
2023/08/14 06:03:33;;;;;;;3.97;3.58;;;;;;;;;;2573179;23;19992;-92
2023/08/14 06:04:36;;;;;;;5.18;3.30;;;;;;;;;;2573558;23;20469;-94
2023/08/14 06:08:13;;;;;;;;;;;;;;;;;;;;;
2023/08/14 06:09:17;;;;;;;;;;;;;;;;;;2511832;23;20453;-92
2023/08/14 06:10:18;;;;;;;3.95;3.38;;;;;;;;;;2546262;23;19982;-92
2023/08/14 06:11:18;;;;;;;4.28;3.20;;;;;;;;;;2560430;23;20438;-92
2023/08/14 06:13:42;;;;;;;4.75;3.33;;;;;;;;;;2548861;23;20000;-92
2023/08/14 06:14:43;;;;;;;5.85;3.50;;;;;;;;;;2555740;23;20131;-92
2023/08/14 06:15:44;;;;;;;4.30;2.88;;;;;;;;;;2559874;23;20376;-92
2023/08/14 06:16:44;;;;;;;5.78;3.42;;;;;;;;;;2572743;23;20686;-91
2023/08/14 06:17:45;;;;;;;5.82;3.30;;;;;;;;;;2572866;23;19996;-91
2023/08/14 06:18:45;;;;;;;5.00;3.05;;;;;;;;;;2570062;23;20382;-92
2023/08/14 06:19:46;;;;;;;4.88;3.10;;;;;;;;;;2568232;23;19997;-91
2023/08/14 06:20:46;;;;;;;4.90;3.50;;;;;;;;;;2559917;23;19993;-92
2023/08/14 06:21:50;;;;;;;3.78;3.33;;;;;;;;;;2573493;23;20023;-93
2023/08/14 06:22:50;;;;;;;4.40;3.15;;;;;;;;;;2555868;23;20064;-92
2023/08/14 06:23:51;;;;;;;4.93;3.30;;;;;;;;;;2555484;23;20059;-91